Bradshaw AFB, HI

2:43 AM HST on February 12, 2016 (GMT -1000)
Bradshaw Army Air Field | | Change Station
CLOSE
Current Station
Airport
Location: Bradshaw AFB,
Elevation: 6191 ft
Nearby Weather Stations

Elev 6191 ft 19.76 °N, 155.55 °W | Updated 47 minutes ago

Clear
Clear
49 °F
Feels Like 49 °F
N
8
Wind Variable Wind from ESE
Gusts 16 mph

Today
High -- | Low -- °F
--% Chance of Precip.
Yesterday
High -- | Low -- °F
Precip. -- in
Pressure 29.94 in
Visibility 10.0 miles
Clouds Clear
Dew Point 22 °F
Humidity 34%
Rainfall 0.00 in
Snow Depth Not available.
6:52 AM 6:20 PM
Waxing Crescent, 20% visible
METAR PHSF 121156Z AUTO 12007G14KT 10SM CLR 10/M06 A3027 RMK AO2 SLP136 T00961058 10114 20088 57010 $
Pressure 29.94 in
Visibility 10.0 miles
Clouds Clear
Dew Point 22 °F
Humidity 34%
Rainfall 0.00 in
Snow Depth Not available.
6:52 AM 6:20 PM
Waxing Crescent, 20% visible
METAR PHSF 121156Z AUTO 12007G14KT 10SM CLR 10/M06 A3027 RMK AO2 SLP136 T00961058 10114 20088 57010 $

10-Day Weather Forecast

Almanac

Astronomy

Feb. 12, 2016 Rise Set
Actual Time
Civil Twilight
Nautical Twilight
Astronomical Twilight
Moon
Length of Visible Light
Length of Day
Tomorrow will be .
, % of the Moon is Illuminated

Today's Extremes

State Highs State Lows

Community

WunderPhotos

Upload Photos

1,892,300 photos uploaded!

WunderBlog® & News

Nearby

Air Quality

  Air Quality AQ Index Pollutant
Not available.

Snow Depth

Station Depth Elevation

Earthquake Activity

City Distance Mag. Time & Date
Minimum magnitude displayed is 2.5.

Coastal Water Temperatures

Place Temperature

Stations

Nearby Weather Stations

Station Location Temp. Windchill Dew Point Humidity Wind Precip. Elev Updated Type
                   

Watches & Warnings

There are currently no watches in effect.